createdAt,value
2019-03-25T00:02:32.237Z,46.85
2019-03-25T00:05:04.844Z,49.03
2019-03-25T00:07:37.497Z,48.80
2019-03-25T00:10:10.113Z,47.65
2019-03-25T00:12:42.538Z,50.03
2019-03-25T00:15:15.242Z,47.35
2019-03-25T00:17:47.814Z,48.52
2019-03-25T00:20:20.540Z,46.02
2019-03-25T00:22:53.598Z,47.13
2019-03-25T00:25:26.335Z,46.45
2019-03-25T00:27:59.101Z,47.85
2019-03-25T00:30:31.515Z,50.00
2019-03-25T00:33:04.385Z,51.48
2019-03-25T00:35:37.195Z,49.18
2019-03-25T00:38:09.943Z,46.30
2019-03-25T00:40:42.363Z,45.17
2019-03-25T00:43:14.898Z,49.27
2019-03-25T00:45:47.320Z,46.48
2019-03-25T00:48:19.743Z,46.08
2019-03-25T00:50:52.383Z,46.53
2019-03-25T00:53:24.997Z,44.77
2019-03-25T00:55:57.481Z,47.27
2019-03-25T00:58:30.180Z,45.50
2019-03-25T01:01:02.878Z,43.85
2019-03-25T01:03:35.853Z,44.50
2019-03-25T01:06:08.578Z,43.80
2019-03-25T01:08:40.808Z,43.87
2019-03-25T01:11:13.672Z,42.73
2019-03-25T01:13:46.451Z,42.60
2019-03-25T01:16:19.188Z,41.00
2019-03-25T01:18:51.634Z,40.98
2019-03-25T01:21:24.077Z,41.55
2019-03-25T01:23:56.512Z,42.00
2019-03-25T01:26:29.212Z,42.98
2019-03-25T01:29:01.594Z,39.75
2019-03-25T01:31:34.247Z,41.25
2019-03-25T01:34:06.608Z,42.45
2019-03-25T01:36:39.426Z,37.90
2019-03-25T01:39:11.755Z,37.95
2019-03-25T01:41:44.279Z,35.40
2019-03-25T01:44:17.080Z,33.90
2019-03-25T01:46:49.781Z,34.27
2019-03-25T01:49:22.260Z,34.45
2019-03-25T01:51:54.755Z,32.85
2019-03-25T01:54:27.389Z,31.42
2019-03-25T01:57:00.188Z,31.45
2019-03-25T01:59:32.741Z,31.35
2019-03-25T02:02:05.510Z,30.85
2019-03-25T02:04:37.781Z,29.65
2019-03-25T02:07:10.233Z,31.20
2019-03-25T02:09:42.745Z,29.72
2019-03-25T02:12:15.641Z,29.18
2019-03-25T02:14:47.990Z,29.52
2019-03-25T02:17:20.427Z,29.75
2019-03-25T02:19:52.905Z,31.48
2019-03-25T02:22:25.646Z,28.92
2019-03-25T02:24:58.457Z,27.55
2019-03-25T02:27:30.951Z,28.47
2019-03-25T02:30:05.309Z,28.40
2019-03-25T02:32:37.795Z,30.32
2019-03-25T02:35:10.299Z,30.57
2019-03-25T02:37:43.787Z,27.67
2019-03-25T02:40:16.263Z,26.42
2019-03-25T02:42:48.691Z,27.07
2019-03-25T02:45:21.044Z,28.12
2019-03-25T02:47:53.916Z,28.02
2019-03-25T02:50:26.642Z,27.35
2019-03-25T02:52:59.299Z,26.50
2019-03-25T02:55:41.606Z,26.07
2019-03-25T02:58:05.735Z,24.85
2019-03-25T03:00:39.863Z,25.02
2019-03-25T03:03:12.421Z,23.27
2019-03-25T03:05:44.942Z,24.65
2019-03-25T03:08:17.248Z,23.95
2019-03-25T03:10:50.964Z,24.77
2019-03-25T03:13:24.440Z,24.47
2019-03-25T03:15:56.958Z,24.52
2019-03-25T03:18:29.196Z,22.32
2019-03-25T03:21:01.780Z,23.25
2019-03-25T03:23:34.374Z,22.25
2019-03-25T03:26:06.632Z,20.62
2019-03-25T03:28:39.154Z,22.93
2019-03-25T03:31:11.819Z,22.02
2019-03-25T03:33:44.541Z,21.70
2019-03-25T03:36:17.031Z,22.00
2019-03-25T03:38:49.642Z,21.90
2019-03-25T03:41:22.048Z,21.40
2019-03-25T03:43:54.799Z,21.50
2019-03-25T03:46:27.230Z,22.07
2019-03-25T03:49:00.041Z,22.27
2019-03-25T03:51:32.362Z,22.55
2019-03-25T03:54:05.238Z,21.85
2019-03-25T03:56:37.937Z,24.87
2019-03-25T03:59:10.683Z,24.70
2019-03-25T04:01:42.887Z,24.85
2019-03-25T04:04:15.439Z,23.92
2019-03-25T04:06:47.834Z,25.75
2019-03-25T04:09:20.364Z,26.07
2019-03-25T04:11:52.566Z,24.15
2019-03-25T04:14:25.167Z,24.85
2019-03-25T04:16:57.490Z,23.62
2019-03-25T04:19:30.540Z,24.87
2019-03-25T04:22:04.086Z,21.97
2019-03-25T04:24:36.674Z,25.10
2019-03-25T04:27:09.074Z,23.83
2019-03-25T04:29:41.248Z,23.32
2019-03-25T04:32:13.769Z,23.30
2019-03-25T04:34:47.596Z,24.12
2019-03-25T04:37:20.006Z,25.97
2019-03-25T04:39:52.508Z,23.60
2019-03-25T04:42:25.029Z,22.82
2019-03-25T04:44:57.760Z,21.97
2019-03-25T04:47:30.243Z,23.50
2019-03-25T04:50:02.974Z,22.58
2019-03-25T04:52:35.349Z,22.55
2019-03-25T04:55:08.651Z,21.90
2019-03-25T04:57:41.030Z,22.27
2019-03-25T05:00:14.640Z,21.30
2019-03-25T05:02:47.046Z,22.05
2019-03-25T05:05:20.028Z,20.48
2019-03-25T05:07:52.601Z,21.90
2019-03-25T05:10:25.317Z,21.52
2019-03-25T05:12:57.829Z,22.35
2019-03-25T05:15:31.589Z,23.05
2019-03-25T05:18:04.020Z,22.52
2019-03-25T05:20:36.664Z,21.93
2019-03-25T05:23:09.009Z,21.87
2019-03-25T05:25:41.707Z,20.65
2019-03-25T05:28:14.266Z,21.30
2019-03-25T05:30:47.008Z,37.00
2019-03-25T05:33:19.729Z,21.75
2019-03-25T05:35:52.389Z,21.05
2019-03-25T05:38:24.973Z,21.62
2019-03-25T05:40:58.012Z,21.87
2019-03-25T05:43:30.774Z,20.68
2019-03-25T05:46:03.647Z,21.17
2019-03-25T05:48:36.669Z,21.73
2019-03-25T05:51:09.357Z,20.80
2019-03-25T05:53:42.705Z,19.82
2019-03-25T05:56:15.328Z,21.15
2019-03-25T05:58:47.634Z,22.55
2019-03-25T06:01:20.910Z,20.68
2019-03-25T06:03:53.632Z,21.25
2019-03-25T06:06:26.415Z,20.43
2019-03-25T06:08:58.932Z,21.52
2019-03-25T06:11:31.696Z,20.65
2019-03-25T06:14:04.306Z,21.60
2019-03-25T06:16:37.052Z,21.07
2019-03-25T06:19:09.463Z,21.68
2019-03-25T06:21:42.313Z,21.20
2019-03-25T06:24:15.261Z,21.17
2019-03-25T06:26:47.878Z,21.95
2019-03-25T06:29:20.265Z,21.95
2019-03-25T06:31:54.402Z,21.70
2019-03-25T06:34:26.878Z,21.68
2019-03-25T06:36:59.284Z,21.07
2019-03-25T06:39:31.769Z,21.62
2019-03-25T06:42:04.202Z,21.60
2019-03-25T06:44:36.782Z,22.45
2019-03-25T06:47:09.364Z,21.82
2019-03-25T06:49:41.949Z,22.27
2019-03-25T06:52:14.690Z,22.73
2019-03-25T06:54:47.492Z,22.77
2019-03-25T06:57:25.499Z,23.30
2019-03-25T06:59:54.283Z,22.35
2019-03-25T07:02:26.656Z,23.32
2019-03-25T07:04:59.023Z,24.40
2019-03-25T07:07:32.253Z,23.95
2019-03-25T07:10:04.996Z,23.73
2019-03-25T07:12:38.547Z,23.25
2019-03-25T07:15:12.202Z,22.98
2019-03-25T07:17:45.018Z,23.55
2019-03-25T07:20:17.748Z,22.55
2019-03-25T07:22:50.192Z,22.10
2019-03-25T07:25:23.271Z,23.10
2019-03-25T07:27:55.850Z,21.73
2019-03-25T07:30:28.276Z,23.25
2019-03-25T07:33:00.851Z,22.02
2019-03-25T07:35:33.235Z,23.32
2019-03-25T07:38:05.826Z,23.30
2019-03-25T07:40:38.037Z,24.25
2019-03-25T07:43:10.693Z,24.43
2019-03-25T07:45:43.803Z,23.83
2019-03-25T07:48:16.099Z,22.98
2019-03-25T07:50:48.877Z,22.60
2019-03-25T07:53:21.877Z,23.05
2019-03-25T07:55:54.789Z,21.05
2019-03-25T07:58:27.446Z,22.40
2019-03-25T08:01:00.324Z,22.15
2019-03-25T08:03:32.701Z,23.05
2019-03-25T08:06:05.228Z,23.73
2019-03-25T08:08:39.609Z,22.73
2019-03-25T08:11:11.611Z,23.30
2019-03-25T08:13:44.312Z,24.85
2019-03-25T08:16:16.645Z,23.65
2019-03-25T08:18:49.555Z,23.98
2019-03-25T08:21:21.929Z,22.62
2019-03-25T08:23:54.743Z,23.00
2019-03-25T08:26:27.052Z,23.98
2019-03-25T08:29:00.067Z,23.45
2019-03-25T08:31:32.564Z,22.30
2019-03-25T08:34:04.949Z,22.05
2019-03-25T08:36:37.285Z,21.62
2019-03-25T08:39:09.944Z,21.10
2019-03-25T08:41:42.090Z,21.15
2019-03-25T08:44:15.148Z,21.65
2019-03-25T08:46:48.645Z,21.77
2019-03-25T08:49:21.145Z,21.12
2019-03-25T08:51:53.677Z,20.75
2019-03-25T08:54:26.647Z,19.90
2019-03-25T08:56:58.859Z,20.72
2019-03-25T08:59:31.390Z,20.35
2019-03-25T09:02:03.822Z,20.48
2019-03-25T09:04:36.285Z,20.52
2019-03-25T09:07:08.693Z,20.50
2019-03-25T09:09:42.148Z,20.88
2019-03-25T09:12:14.481Z,19.65
2019-03-25T09:14:47.195Z,20.37
2019-03-25T09:17:20.039Z,21.50
2019-03-25T09:19:53.669Z,20.95
2019-03-25T09:22:26.202Z,20.60
2019-03-25T09:24:58.906Z,20.95
2019-03-25T09:27:33.997Z,21.05
2019-03-25T09:30:08.322Z,21.15
2019-03-25T09:32:40.657Z,21.40
2019-03-25T09:35:13.529Z,21.02
2019-03-25T09:37:45.980Z,20.62
2019-03-25T09:40:18.735Z,21.02
2019-03-25T09:42:51.450Z,20.43
2019-03-25T09:45:24.255Z,21.05
2019-03-25T09:47:56.615Z,20.57
2019-03-25T09:50:29.113Z,21.75
2019-03-25T09:53:01.389Z,21.07
2019-03-25T09:55:33.874Z,21.27
2019-03-25T09:58:06.592Z,21.10
2019-03-25T10:00:39.364Z,20.00
2019-03-25T10:03:11.687Z,20.80
2019-03-25T10:05:44.301Z,20.30
2019-03-25T10:08:16.625Z,19.92
2019-03-25T10:10:49.129Z,20.75
2019-03-25T10:13:21.531Z,20.68
2019-03-25T10:15:54.521Z,20.80
2019-03-25T10:18:26.864Z,20.23
2019-03-25T10:20:59.475Z,20.90
2019-03-25T10:23:32.108Z,20.97
2019-03-25T10:26:05.374Z,20.85
2019-03-25T10:28:47.909Z,21.07
2019-03-25T10:31:11.601Z,21.93
2019-03-25T10:33:44.073Z,26.15
2019-03-25T10:36:16.893Z,28.07
2019-03-25T10:38:49.179Z,27.98
2019-03-25T10:41:21.910Z,29.00
2019-03-25T10:43:54.504Z,28.98
2019-03-25T10:46:27.352Z,28.90
2019-03-25T10:48:59.676Z,29.27
2019-03-25T10:51:32.745Z,29.92
2019-03-25T10:54:05.223Z,29.87
2019-03-25T10:56:37.978Z,29.63
2019-03-25T10:59:11.400Z,31.87
2019-03-25T11:01:43.981Z,29.60
2019-03-25T11:04:16.359Z,28.67
2019-03-25T11:06:49.212Z,30.08
2019-03-25T11:09:21.607Z,29.48
2019-03-25T11:11:54.614Z,28.90
2019-03-25T11:14:26.944Z,30.30
2019-03-25T11:16:59.279Z,30.23
2019-03-25T11:19:31.919Z,28.60
2019-03-25T11:22:05.118Z,28.80
2019-03-25T11:24:37.537Z,28.60
2019-03-25T11:27:10.174Z,31.55
2019-03-25T11:29:42.534Z,32.05
2019-03-25T11:32:15.345Z,31.07
2019-03-25T11:34:47.837Z,30.75
2019-03-25T11:37:21.649Z,31.33
2019-03-25T11:39:54.029Z,30.80
2019-03-25T11:42:26.787Z,33.00
2019-03-25T11:44:59.356Z,32.67
2019-03-25T11:47:31.970Z,35.10
2019-03-25T11:50:05.243Z,33.28
2019-03-25T11:52:37.991Z,33.02
2019-03-25T11:55:10.695Z,38.95
2019-03-25T11:57:43.264Z,37.63
2019-03-25T12:00:16.152Z,35.45
2019-03-25T12:02:48.541Z,36.73
2019-03-25T12:05:20.838Z,35.45
2019-03-25T12:07:53.858Z,33.30
2019-03-25T12:10:26.344Z,33.35
2019-03-25T12:12:58.979Z,32.53
2019-03-25T12:15:31.359Z,33.58
2019-03-25T12:18:04.116Z,32.00
2019-03-25T12:20:36.614Z,33.25
2019-03-25T12:23:08.963Z,33.92
2019-03-25T12:25:41.512Z,34.80
2019-03-25T12:28:14.070Z,34.83
2019-03-25T12:30:46.742Z,33.78
2019-03-25T12:33:19.148Z,34.15
2019-03-25T12:35:51.673Z,31.80
2019-03-25T12:38:23.990Z,30.85
2019-03-25T12:40:56.758Z,29.42
2019-03-25T12:43:29.138Z,30.52
2019-03-25T12:46:02.019Z,30.45
2019-03-25T12:48:34.632Z,30.12
2019-03-25T12:51:07.336Z,30.37
2019-03-25T12:53:39.677Z,32.38
2019-03-25T12:56:12.302Z,31.12
2019-03-25T12:58:44.931Z,33.70
2019-03-25T13:01:17.416Z,34.90
2019-03-25T13:03:49.723Z,34.18
2019-03-25T13:06:22.150Z,33.00
2019-03-25T13:08:54.665Z,34.40
2019-03-25T13:11:27.177Z,33.38
2019-03-25T13:13:59.826Z,32.80
2019-03-25T13:16:32.596Z,31.65
2019-03-25T13:19:05.087Z,32.78
2019-03-25T13:21:38.679Z,30.08
2019-03-25T13:24:12.112Z,31.23
2019-03-25T13:26:44.538Z,31.33
2019-03-25T13:29:17.540Z,30.00
2019-03-25T13:31:49.761Z,30.95
2019-03-25T13:34:22.094Z,32.98
2019-03-25T13:36:54.430Z,34.40
2019-03-25T13:39:27.027Z,34.35
2019-03-25T13:42:00.024Z,35.92
2019-03-25T13:44:32.525Z,36.38
2019-03-25T13:47:04.959Z,36.85
2019-03-25T13:49:37.524Z,38.35
2019-03-25T13:52:09.864Z,40.52
2019-03-25T13:54:42.498Z,39.83
2019-03-25T13:57:14.865Z,41.50
2019-03-25T13:59:48.539Z,37.90
2019-03-25T14:02:21.034Z,37.13
2019-03-25T14:04:53.421Z,35.85
2019-03-25T14:07:25.738Z,34.40
2019-03-25T14:09:58.603Z,35.23
2019-03-25T14:12:31.095Z,36.60
2019-03-25T14:15:03.897Z,36.55
2019-03-25T14:17:36.406Z,35.23
2019-03-25T14:20:10.255Z,34.40
2019-03-25T14:22:43.265Z,34.65
2019-03-25T14:25:15.919Z,34.95
2019-03-25T14:27:48.238Z,36.55
2019-03-25T14:30:20.784Z,33.98
2019-03-25T14:32:53.722Z,34.35
2019-03-25T14:35:26.637Z,35.40
2019-03-25T14:37:59.179Z,35.28
2019-03-25T14:40:31.857Z,33.88
2019-03-25T14:43:04.779Z,33.98
2019-03-25T14:45:38.064Z,36.13
2019-03-25T14:48:10.599Z,35.20
2019-03-25T14:50:43.110Z,35.08
2019-03-25T14:53:15.920Z,34.78
2019-03-25T14:55:48.695Z,36.95
2019-03-25T14:58:21.292Z,35.28
2019-03-25T15:00:53.891Z,35.70
2019-03-25T15:03:26.277Z,36.10
2019-03-25T15:05:58.991Z,35.75
2019-03-25T15:08:31.676Z,33.73
2019-03-25T15:11:04.505Z,34.80
2019-03-25T15:13:36.989Z,34.08
2019-03-25T15:16:09.473Z,35.15
2019-03-25T15:18:41.748Z,35.60
2019-03-25T15:21:14.408Z,35.58
2019-03-25T15:23:46.741Z,35.17
2019-03-25T15:26:19.339Z,35.35
2019-03-25T15:28:51.906Z,34.88
2019-03-25T15:31:24.610Z,36.75
2019-03-25T15:33:56.934Z,35.52
2019-03-25T15:36:29.660Z,35.08
2019-03-25T15:39:02.137Z,36.33
2019-03-25T15:41:35.894Z,37.17
2019-03-25T15:44:08.592Z,35.60
2019-03-25T15:46:41.162Z,37.63
2019-03-25T15:49:13.747Z,36.03
2019-03-25T15:51:46.287Z,36.75
2019-03-25T15:54:19.121Z,36.40
2019-03-25T15:56:51.749Z,36.23
2019-03-25T15:59:24.440Z,38.05
2019-03-25T16:01:57.061Z,36.05
2019-03-25T16:04:29.836Z,35.68
2019-03-25T16:07:02.410Z,36.38
2019-03-25T16:09:35.043Z,36.13
2019-03-25T16:12:07.563Z,35.33
2019-03-25T16:14:40.083Z,34.80
2019-03-25T16:17:12.483Z,33.63
2019-03-25T16:19:45.385Z,35.15
2019-03-25T16:22:17.937Z,34.10
2019-03-25T16:24:50.961Z,33.10
2019-03-25T16:27:23.441Z,33.15
2019-03-25T16:29:56.208Z,34.30
2019-03-25T16:32:28.522Z,34.95
2019-03-25T16:35:01.188Z,34.27
2019-03-25T16:37:34.573Z,34.13
2019-03-25T16:40:08.861Z,36.25
2019-03-25T16:42:41.192Z,34.15
2019-03-25T16:45:14.043Z,34.67
2019-03-25T16:47:46.451Z,33.67
2019-03-25T16:50:19.068Z,34.03
2019-03-25T16:52:51.684Z,35.30
2019-03-25T16:55:24.163Z,35.23
2019-03-25T16:57:56.579Z,35.58
2019-03-25T17:00:29.482Z,34.00
2019-03-25T17:03:01.845Z,34.75
2019-03-25T17:05:34.340Z,34.65
2019-03-25T17:08:07.111Z,34.73
2019-03-25T17:10:39.843Z,37.42
2019-03-25T17:13:12.305Z,36.65
2019-03-25T17:15:44.627Z,38.10
2019-03-25T17:18:16.946Z,36.83
2019-03-25T17:20:50.000Z,36.68
2019-03-25T17:23:22.668Z,39.73
2019-03-25T17:25:55.462Z,42.05
2019-03-25T17:28:27.888Z,40.17
2019-03-25T17:31:02.976Z,40.23
2019-03-25T17:33:34.240Z,40.78
2019-03-25T17:36:07.179Z,42.98
2019-03-25T17:38:39.268Z,42.05
2019-03-25T17:41:12.165Z,42.90
2019-03-25T17:43:44.604Z,41.15
2019-03-25T17:46:16.970Z,39.65
2019-03-25T17:48:49.295Z,39.67
2019-03-25T17:51:22.030Z,41.45
2019-03-25T17:53:54.508Z,40.65
2019-03-25T17:56:28.375Z,40.88
2019-03-25T17:59:02.756Z,38.73
2019-03-25T18:01:35.789Z,38.80
2019-03-25T18:04:08.544Z,39.18
2019-03-25T18:06:41.011Z,38.83
2019-03-25T18:09:13.678Z,37.98
2019-03-25T18:11:46.468Z,41.83
2019-03-25T18:14:19.264Z,43.33
2019-03-25T18:16:52.155Z,40.50
2019-03-25T18:19:24.647Z,40.85
2019-03-25T18:21:56.955Z,43.45
2019-03-25T18:24:30.136Z,41.25
2019-03-25T18:27:02.531Z,40.48
2019-03-25T18:29:35.513Z,39.42
2019-03-25T18:32:08.004Z,40.78
2019-03-25T18:34:40.563Z,38.75
2019-03-25T18:37:13.157Z,37.83
2019-03-25T18:39:45.301Z,38.38
2019-03-25T18:42:17.748Z,38.83
2019-03-25T18:44:50.475Z,37.38
2019-03-25T18:47:22.978Z,38.08
2019-03-25T18:49:55.720Z,37.50
2019-03-25T18:52:28.181Z,35.68
2019-03-25T18:55:01.016Z,37.20
2019-03-25T18:57:33.393Z,36.28
2019-03-25T19:00:09.236Z,36.50
2019-03-25T19:02:41.582Z,38.73
2019-03-25T19:05:14.213Z,40.78
2019-03-25T19:07:47.879Z,40.17
2019-03-25T19:10:22.740Z,37.65
2019-03-25T19:12:55.231Z,39.63
2019-03-25T19:15:27.986Z,36.70
2019-03-25T19:18:00.511Z,36.00
2019-03-25T19:20:33.655Z,36.65
2019-03-25T19:23:06.113Z,34.78
2019-03-25T19:25:38.829Z,34.27
2019-03-25T19:28:11.376Z,35.75
2019-03-25T19:30:43.918Z,37.80
2019-03-25T19:33:16.341Z,37.60
2019-03-25T19:35:47.861Z,35.10
2019-03-25T19:38:20.505Z,37.23
2019-03-25T19:40:53.051Z,34.67
2019-03-25T19:43:25.716Z,34.30
2019-03-25T19:45:59.424Z,33.63
2019-03-25T19:48:32.100Z,35.03
2019-03-25T19:51:04.539Z,35.48
2019-03-25T19:53:36.980Z,34.23
2019-03-25T19:56:09.564Z,33.85
2019-03-25T19:58:42.239Z,33.35
2019-03-25T20:01:14.689Z,34.70
2019-03-25T20:03:48.078Z,34.67
2019-03-25T20:06:26.097Z,34.53
2019-03-25T20:08:54.480Z,33.73
2019-03-25T20:11:27.059Z,31.80
2019-03-25T20:13:59.706Z,32.17
2019-03-25T20:16:32.122Z,31.85
2019-03-25T20:19:05.195Z,33.50
2019-03-25T20:21:37.861Z,33.42
2019-03-25T20:24:11.254Z,31.40
2019-03-25T20:26:43.920Z,31.15
2019-03-25T20:29:16.338Z,30.05
2019-03-25T20:31:49.294Z,30.23
2019-03-25T20:34:21.779Z,31.55
2019-03-25T20:36:54.649Z,31.85
2019-03-25T20:39:27.207Z,31.70
2019-03-25T20:41:59.917Z,30.65
2019-03-25T20:44:32.841Z,31.77
2019-03-25T20:47:05.336Z,32.38
2019-03-25T20:49:37.770Z,30.70
2019-03-25T20:52:10.662Z,30.30
2019-03-25T20:54:43.924Z,31.12
2019-03-25T20:57:16.738Z,30.60
2019-03-25T20:59:49.029Z,30.57
2019-03-25T21:02:21.749Z,31.27
2019-03-25T21:04:54.144Z,32.17
2019-03-25T21:07:26.788Z,30.88
2019-03-25T21:09:59.549Z,32.05
2019-03-25T21:12:32.123Z,31.87
2019-03-25T21:15:06.265Z,32.50
2019-03-25T21:17:38.786Z,32.90
2019-03-25T21:20:11.655Z,33.55
2019-03-25T21:22:43.935Z,32.42
2019-03-25T21:25:16.838Z,31.68
2019-03-25T21:27:49.440Z,32.67
2019-03-25T21:30:22.460Z,38.13
2019-03-25T21:32:58.466Z,36.42
2019-03-25T21:35:29.134Z,39.60
2019-03-25T21:38:01.600Z,37.35
2019-03-25T21:40:34.415Z,41.75
2019-03-25T21:43:06.958Z,38.30
2019-03-25T21:45:39.487Z,37.33
2019-03-25T21:48:12.093Z,34.95
2019-03-25T21:50:44.601Z,33.23
2019-03-25T21:53:18.369Z,31.95
2019-03-25T21:55:52.099Z,31.70
2019-03-25T21:58:24.657Z,33.83
2019-03-25T22:00:57.864Z,32.20
2019-03-25T22:03:30.327Z,32.10
2019-03-25T22:06:02.919Z,32.13
2019-03-25T22:08:35.529Z,31.25
2019-03-25T22:11:08.412Z,30.82
2019-03-25T22:13:41.021Z,30.12
2019-03-25T22:16:13.408Z,29.98
2019-03-25T22:18:45.888Z,30.20
2019-03-25T22:21:18.200Z,29.87
2019-03-25T22:23:53.579Z,29.35
2019-03-25T22:26:24.458Z,31.62
2019-03-25T22:28:58.166Z,31.68
2019-03-25T22:31:30.506Z,33.73
2019-03-25T22:34:03.034Z,32.60
2019-03-25T22:36:35.430Z,35.17
2019-03-25T22:39:09.130Z,33.75
2019-03-25T22:41:41.318Z,33.38
2019-03-25T22:44:14.315Z,33.53
2019-03-25T22:46:46.754Z,36.23
2019-03-25T22:49:19.304Z,37.28
2019-03-25T22:51:51.741Z,38.78
2019-03-25T22:54:24.277Z,40.15
2019-03-25T22:56:56.690Z,41.18
2019-03-25T22:59:29.319Z,39.92
2019-03-25T23:02:02.025Z,41.50
2019-03-25T23:04:34.620Z,40.73
2019-03-25T23:07:07.034Z,38.40
2019-03-25T23:09:39.793Z,40.65
2019-03-25T23:12:12.283Z,38.53
2019-03-25T23:14:44.981Z,40.98
2019-03-25T23:17:17.545Z,40.90
2019-03-25T23:19:49.979Z,42.03
2019-03-25T23:22:22.612Z,43.35
2019-03-25T23:24:56.269Z,41.75
2019-03-25T23:27:29.410Z,44.33
2019-03-25T23:30:02.789Z,42.40
2019-03-25T23:32:35.516Z,42.95
2019-03-25T23:35:08.834Z,43.33
2019-03-25T23:37:41.481Z,41.30
2019-03-25T23:40:14.347Z,42.27
2019-03-25T23:42:46.581Z,41.15
2019-03-25T23:45:19.236Z,42.90
2019-03-25T23:47:51.802Z,42.48
2019-03-25T23:50:25.079Z,40.80
2019-03-25T23:52:57.625Z,39.63
2019-03-25T23:55:31.036Z,41.60
2019-03-25T23:58:03.506Z,41.30
